Airfield :
LOGIN :

Register | Disclaimer

   EN    FR    IT 

 










Legend :    VFR   Marginal VFR   IFR   Intensive IFR   Very Intensive IFR
Visi :
Ceiling :
>= 8 km
>= 3000ft
5 to 8 km
1000 to 3000 ft
1500m to 5 km
500 to 1000 ft
800 to 1500m
200 to 500 ft
< 800m
< 200 ft
Symbols :   Thunderstorms  Fog  Heavy snow  Heavy precipitations  Wind > 20 kt
SIGMETs :     Misc.  Thunderstorms  Icing  Turbulence  Mountain Waves  Volcanic Ashes






- Airport Elevation : 978 ft
- IATA code : LNZ


LOWL - Linz

CURRENT METAR :
  • 021050Z AUTO 12007KT 090V180 9999 FEW030 20/12 Q1025 NOSIG

EXPIRED METARs :
  • 021020Z AUTO 11006KT 050V180 9999 FEW025 20/11 Q1025 NOSIG
  • 020950Z AUTO 08005KT 040V140 9999 FEW025 20/14 Q1026 NOSIG
  • 020920Z AUTO 10005KT 030V160 9999 FEW020 19/12 Q1026 NOSIG
  • 020850Z AUTO 09004KT 050V210 9999 FEW012 18/13 Q1026 BECMG 10010KT
  • 020820Z AUTO VRB03KT 9999 FEW009 17/16 Q1026 BECMG 10010KT
  • 012150Z AUTO VRB02KT 9999 NSC 14/12 Q1024

TAF TAF LOWL
Valid from the 02 at 06:00 until the 03 at 06:00 UTC


020515Z 0206/0306 VRB03KT 0500 FG BKN001 TX26/0215Z TN13/0206Z
PROB40
TEMPO 0206/0207 1200 BCFG BKN002
BECMG 0207/0209 10010KT CAVOK
BECMG 0221/0223 VRB02KT



MET'MAP, your aeronautical weather chart ! - Copyright ORBIFLY December 2007 - Disclaimer

ORBIFLY MET'MAP TEAM :

Programming & Development : Alexandra Zaïnal
Original concept : Baudouin d'Aumeries
Technical & hardware support : Manuel Goepfert
Assistance : Marc-Olivier Méhu




SOURCES & CREDITS :

   NOAA